createdAt,value
2019-03-05T00:00:32.285Z,543
2019-03-05T00:01:39.211Z,544
2019-03-05T00:02:46.417Z,544
2019-03-05T00:03:53.342Z,543
2019-03-05T00:05:00.580Z,543
2019-03-05T00:06:07.788Z,542
2019-03-05T00:07:14.985Z,542
2019-03-05T00:08:22.187Z,542
2019-03-05T00:09:29.409Z,543
2019-03-05T00:10:36.328Z,543
2019-03-05T00:11:43.527Z,542
2019-03-05T00:12:50.724Z,544
2019-03-05T00:13:57.960Z,543
2019-03-05T00:15:04.879Z,542
2019-03-05T00:16:12.111Z,543
2019-03-05T00:17:19.036Z,542
2019-03-05T00:18:26.236Z,544
2019-03-05T00:19:33.187Z,543
2019-03-05T00:20:40.109Z,543
2019-03-05T00:21:47.044Z,545
2019-03-05T00:22:54.244Z,544
2019-03-05T00:24:01.447Z,545
2019-03-05T00:25:08.651Z,545
2019-03-05T00:26:15.859Z,545
2019-03-05T00:27:23.063Z,545
2019-03-05T00:28:30.278Z,546
2019-03-05T00:29:37.485Z,546
2019-03-05T00:30:44.700Z,548
2019-03-05T00:31:51.638Z,548
2019-03-05T00:32:58.843Z,549
2019-03-05T00:34:06.049Z,549
2019-03-05T00:35:12.978Z,550
2019-03-05T00:36:20.189Z,550
2019-03-05T00:37:27.398Z,551
2019-03-05T00:38:34.600Z,551
2019-03-05T00:39:41.544Z,552
2019-03-05T00:40:48.748Z,551
2019-03-05T00:41:55.726Z,551
2019-03-05T00:43:03.019Z,553
2019-03-05T00:44:09.945Z,553
2019-03-05T00:45:16.879Z,553
2019-03-05T00:46:24.086Z,554
2019-03-05T00:47:31.291Z,553
2019-03-05T00:48:38.494Z,554
2019-03-05T00:49:45.433Z,549
2019-03-05T00:50:52.368Z,547
2019-03-05T00:51:59.296Z,546
2019-03-05T00:53:06.502Z,546
2019-03-05T00:54:13.702Z,546
2019-03-05T00:55:20.928Z,547
2019-03-05T00:56:28.135Z,548
2019-03-05T00:57:35.085Z,551
2019-03-05T00:58:42.294Z,550
2019-03-05T00:59:49.220Z,549
2019-03-05T01:00:56.417Z,550
2019-03-05T01:02:03.352Z,548
2019-03-05T01:03:10.548Z,550
2019-03-05T01:04:17.752Z,551
2019-03-05T01:05:24.968Z,553
2019-03-05T01:06:32.187Z,553
2019-03-05T01:07:39.401Z,555
2019-03-05T01:08:46.608Z,555
2019-03-05T01:09:53.537Z,555
2019-03-05T01:11:00.741Z,557
2019-03-05T01:12:07.946Z,556
2019-03-05T01:13:15.160Z,559
2019-03-05T01:14:22.433Z,560
2019-03-05T01:15:29.681Z,558
2019-03-05T01:16:36.889Z,559
2019-03-05T01:17:44.104Z,558
2019-03-05T01:18:51.311Z,557
2019-03-05T01:19:58.251Z,556
2019-03-05T01:21:05.206Z,555
2019-03-05T01:22:12.442Z,551
2019-03-05T01:23:19.384Z,555
2019-03-05T01:24:26.598Z,562
2019-03-05T01:25:33.818Z,564
2019-03-05T01:26:40.757Z,566
2019-03-05T01:27:47.423Z,566
2019-03-05T01:28:54.624Z,568
2019-03-05T01:30:01.833Z,571
2019-03-05T01:31:09.039Z,570
2019-03-05T01:32:15.971Z,562
2019-03-05T01:33:23.189Z,555
2019-03-05T01:34:30.392Z,562
2019-03-05T01:35:37.081Z,557
2019-03-05T01:36:43.992Z,556
2019-03-05T01:37:51.208Z,550
2019-03-05T01:38:58.421Z,544
2019-03-05T01:40:05.621Z,539
2019-03-05T01:41:12.557Z,538
2019-03-05T01:42:19.755Z,535
2019-03-05T01:43:26.406Z,535
2019-03-05T01:44:33.353Z,534
2019-03-05T01:45:40.553Z,534
2019-03-05T01:46:47.780Z,535
2019-03-05T01:47:54.429Z,531
2019-03-05T01:49:01.367Z,532
2019-03-05T01:50:08.576Z,538
2019-03-05T01:51:15.788Z,532
2019-03-05T01:52:22.708Z,536
2019-03-05T01:53:29.637Z,538
2019-03-05T01:54:36.833Z,540
2019-03-05T01:55:44.024Z,541
2019-03-05T01:56:51.293Z,546
2019-03-05T01:57:58.231Z,549
2019-03-05T01:59:05.169Z,550
2019-03-05T02:00:12.930Z,543
2019-03-05T02:01:20.138Z,544
2019-03-05T02:02:27.068Z,549
2019-03-05T02:03:34.272Z,551
2019-03-05T02:04:41.480Z,548
2019-03-05T02:05:48.686Z,544
2019-03-05T02:06:55.892Z,539
2019-03-05T02:08:03.100Z,540
2019-03-05T02:09:10.044Z,539
2019-03-05T02:10:17.242Z,540
2019-03-05T02:11:24.461Z,538
2019-03-05T02:12:31.662Z,539
2019-03-05T02:13:38.873Z,539
2019-03-05T02:14:46.080Z,538
2019-03-05T02:15:52.732Z,537
2019-03-05T02:16:59.943Z,539
2019-03-05T02:18:06.897Z,538
2019-03-05T02:19:13.800Z,538
2019-03-05T02:20:21.024Z,537
2019-03-05T02:21:28.226Z,538
2019-03-05T02:22:35.170Z,538
2019-03-05T02:23:42.384Z,539
2019-03-05T02:24:49.586Z,537
2019-03-05T02:25:56.795Z,538
2019-03-05T02:27:03.992Z,539
2019-03-05T02:28:11.195Z,539
2019-03-05T02:29:18.405Z,539
2019-03-05T02:30:25.608Z,538
2019-03-05T02:31:32.821Z,538
2019-03-05T02:32:40.024Z,537
2019-03-05T02:33:47.219Z,537
2019-03-05T02:34:54.423Z,537
2019-03-05T02:36:01.622Z,536
2019-03-05T02:37:08.822Z,537
2019-03-05T02:38:15.746Z,537
2019-03-05T02:39:22.778Z,537
2019-03-05T02:40:29.977Z,537
2019-03-05T02:41:37.182Z,539
2019-03-05T02:42:44.118Z,539
2019-03-05T02:43:51.044Z,539
2019-03-05T02:44:58.260Z,538
2019-03-05T02:46:05.189Z,539
2019-03-05T02:47:12.394Z,538
2019-03-05T02:48:19.604Z,538
2019-03-05T02:49:26.798Z,537
2019-03-05T02:50:33.997Z,538
2019-03-05T02:51:41.196Z,536
2019-03-05T02:52:48.126Z,536
2019-03-05T02:53:55.127Z,535
2019-03-05T02:55:02.340Z,534
2019-03-05T02:56:09.646Z,534
2019-03-05T02:57:16.583Z,534
2019-03-05T02:58:23.790Z,533
2019-03-05T02:59:31.010Z,533
2019-03-05T03:00:38.229Z,532
2019-03-05T03:01:45.434Z,532
2019-03-05T03:02:52.386Z,531
2019-03-05T03:03:59.590Z,532
2019-03-05T03:05:06.788Z,532
2019-03-05T03:06:13.998Z,532
2019-03-05T03:07:20.922Z,532
2019-03-05T03:08:28.151Z,531
2019-03-05T03:09:35.115Z,532
2019-03-05T03:10:42.034Z,531
2019-03-05T03:11:49.269Z,531
2019-03-05T03:12:56.204Z,531
2019-03-05T03:14:03.349Z,532
2019-03-05T03:15:10.543Z,532
2019-03-05T03:16:17.478Z,533
2019-03-05T03:17:24.678Z,533
2019-03-05T03:18:31.875Z,532
2019-03-05T03:19:39.077Z,533
2019-03-05T03:20:46.351Z,533
2019-03-05T03:21:53.538Z,531
2019-03-05T03:23:00.763Z,531
2019-03-05T03:24:07.976Z,530
2019-03-05T03:25:15.200Z,531
2019-03-05T03:26:22.396Z,530
2019-03-05T03:27:29.355Z,531
2019-03-05T03:28:36.560Z,532
2019-03-05T03:29:43.764Z,531
2019-03-05T03:30:50.970Z,531
2019-03-05T03:31:58.247Z,531
2019-03-05T03:33:05.344Z,530
2019-03-05T03:34:12.593Z,531
2019-03-05T03:35:19.260Z,531
2019-03-05T03:36:26.180Z,530
2019-03-05T03:37:33.387Z,529
2019-03-05T03:38:40.348Z,529
2019-03-05T03:39:47.550Z,529
2019-03-05T03:40:54.987Z,528
2019-03-05T03:42:02.187Z,529
2019-03-05T03:43:09.389Z,529
2019-03-05T03:44:16.587Z,528
2019-03-05T03:45:23.786Z,529
2019-03-05T03:46:31.001Z,530
2019-03-05T03:47:38.203Z,529
2019-03-05T03:48:45.410Z,529
2019-03-05T03:49:52.613Z,530
2019-03-05T03:50:59.534Z,529
2019-03-05T03:52:06.755Z,531
2019-03-05T03:53:13.961Z,529
2019-03-05T03:54:21.168Z,530
2019-03-05T03:55:28.108Z,528
2019-03-05T03:56:35.307Z,529
2019-03-05T03:57:42.508Z,530
2019-03-05T03:58:49.710Z,530
2019-03-05T03:59:56.910Z,529
2019-03-05T04:01:07.658Z,529
2019-03-05T04:02:14.648Z,528
2019-03-05T04:03:21.569Z,530
2019-03-05T04:04:28.772Z,528
2019-03-05T04:05:35.719Z,530
2019-03-05T04:06:42.924Z,529
2019-03-05T04:07:50.146Z,529
2019-03-05T04:08:57.098Z,529
2019-03-05T04:10:04.025Z,529
2019-03-05T04:11:10.684Z,529
2019-03-05T04:12:17.897Z,529
2019-03-05T04:13:25.096Z,529
2019-03-05T04:14:32.297Z,529
2019-03-05T04:15:39.216Z,529
2019-03-05T04:16:45.888Z,529
2019-03-05T04:17:52.854Z,528
2019-03-05T04:19:00.095Z,527
2019-03-05T04:20:07.299Z,528
2019-03-05T04:21:14.230Z,527
2019-03-05T04:22:21.436Z,528
2019-03-05T04:23:28.627Z,527
2019-03-05T04:24:35.862Z,527
2019-03-05T04:25:43.070Z,527
2019-03-05T04:26:50.267Z,526
2019-03-05T04:27:57.482Z,526
2019-03-05T04:29:04.711Z,526
2019-03-05T04:30:11.934Z,527
2019-03-05T04:31:19.133Z,527
2019-03-05T04:32:26.351Z,527
2019-03-05T04:33:33.286Z,526
2019-03-05T04:34:40.215Z,527
2019-03-05T04:35:47.423Z,527
2019-03-05T04:36:54.620Z,526
2019-03-05T04:38:01.849Z,526
2019-03-05T04:39:09.045Z,528
2019-03-05T04:40:16.240Z,526
2019-03-05T04:41:23.172Z,527
2019-03-05T04:42:30.387Z,526
2019-03-05T04:43:37.336Z,526
2019-03-05T04:44:44.269Z,527
2019-03-05T04:45:51.199Z,526
2019-03-05T04:46:58.401Z,526
2019-03-05T04:48:05.345Z,527
2019-03-05T04:49:12.537Z,526
2019-03-05T04:50:19.737Z,526
2019-03-05T04:51:26.931Z,526
2019-03-05T04:52:33.872Z,525
2019-03-05T04:53:41.076Z,525
2019-03-05T04:54:48.032Z,526
2019-03-05T04:55:54.676Z,526
2019-03-05T04:57:01.626Z,526
2019-03-05T04:58:08.834Z,525
2019-03-05T04:59:15.780Z,525
2019-03-05T05:00:22.522Z,525
2019-03-05T05:01:29.720Z,525
2019-03-05T05:02:36.924Z,525
2019-03-05T05:03:44.125Z,525
2019-03-05T05:04:51.332Z,525
2019-03-05T05:05:58.559Z,524
2019-03-05T05:07:05.490Z,525
2019-03-05T05:08:12.437Z,525
2019-03-05T05:09:19.646Z,526
2019-03-05T05:10:26.866Z,525
2019-03-05T05:11:34.072Z,526
2019-03-05T05:12:41.278Z,525
2019-03-05T05:13:48.212Z,526
2019-03-05T05:14:55.413Z,525
2019-03-05T05:16:02.615Z,525
2019-03-05T05:17:24.481Z,524
2019-03-05T05:18:31.391Z,525
2019-03-05T05:19:38.602Z,525
2019-03-05T05:20:45.816Z,526
2019-03-05T05:21:53.019Z,525
2019-03-05T05:23:00.223Z,524
2019-03-05T05:24:07.451Z,524
2019-03-05T05:25:14.656Z,524
2019-03-05T05:26:21.861Z,524
2019-03-05T05:27:29.077Z,523
2019-03-05T05:28:36.285Z,524
2019-03-05T05:29:43.219Z,526
2019-03-05T05:30:50.427Z,524
2019-03-05T05:31:59.206Z,524
2019-03-05T05:33:06.403Z,526
2019-03-05T05:34:13.606Z,528
2019-03-05T05:35:20.814Z,528
2019-03-05T05:36:27.745Z,527
2019-03-05T05:37:34.950Z,526
2019-03-05T05:38:42.154Z,528
2019-03-05T05:39:49.567Z,527
2019-03-05T05:40:56.790Z,527
2019-03-05T05:42:03.988Z,527
2019-03-05T05:43:10.914Z,527
2019-03-05T05:44:18.118Z,527
2019-03-05T05:45:25.327Z,527
2019-03-05T05:46:32.532Z,527
2019-03-05T05:47:39.462Z,527
2019-03-05T05:48:46.386Z,526
2019-03-05T05:49:53.583Z,527
2019-03-05T05:51:00.794Z,527
2019-03-05T05:52:07.730Z,527
2019-03-05T05:53:14.932Z,526
2019-03-05T05:54:22.159Z,526
2019-03-05T05:55:29.367Z,527
2019-03-05T05:56:36.286Z,526
2019-03-05T05:57:43.224Z,528
2019-03-05T05:58:50.424Z,526
2019-03-05T05:59:57.356Z,528
2019-03-05T06:01:04.794Z,526
2019-03-05T06:02:11.997Z,525
2019-03-05T06:03:19.410Z,526
2019-03-05T06:04:26.623Z,525
2019-03-05T06:05:34.063Z,524
2019-03-05T06:06:40.991Z,525
2019-03-05T06:07:47.965Z,525
2019-03-05T06:08:55.153Z,524
2019-03-05T06:10:01.859Z,523
2019-03-05T06:11:09.067Z,523
2019-03-05T06:12:16.226Z,523
2019-03-05T06:13:23.438Z,521
2019-03-05T06:14:30.431Z,522
2019-03-05T06:15:37.399Z,523
2019-03-05T06:16:44.623Z,522
2019-03-05T06:17:51.896Z,521
2019-03-05T06:18:58.810Z,521
2019-03-05T06:20:06.023Z,521
2019-03-05T06:21:13.465Z,521
2019-03-05T06:22:20.702Z,521
2019-03-05T06:23:28.143Z,520
2019-03-05T06:24:35.344Z,520
2019-03-05T06:25:42.764Z,521
2019-03-05T06:26:49.972Z,520
2019-03-05T06:27:57.176Z,520
2019-03-05T06:29:04.393Z,520
2019-03-05T06:30:11.591Z,520
2019-03-05T06:31:18.541Z,520
2019-03-05T06:32:25.755Z,520
2019-03-05T06:33:32.984Z,521
2019-03-05T06:34:40.216Z,521
2019-03-05T06:35:47.426Z,520
2019-03-05T06:36:54.664Z,521
2019-03-05T06:38:01.871Z,522
2019-03-05T06:39:09.305Z,520
2019-03-05T06:40:16.510Z,520
2019-03-05T06:41:23.709Z,521
2019-03-05T06:42:30.940Z,520
2019-03-05T06:43:37.883Z,521
2019-03-05T06:44:45.109Z,520
2019-03-05T06:45:52.333Z,519
2019-03-05T06:46:59.246Z,519
2019-03-05T06:48:06.672Z,518
2019-03-05T06:49:13.876Z,518
2019-03-05T06:50:21.035Z,518
2019-03-05T06:51:28.237Z,517
2019-03-05T06:52:35.447Z,518
2019-03-05T06:53:42.378Z,519
2019-03-05T06:54:49.586Z,518
2019-03-05T06:55:56.537Z,518
2019-03-05T06:57:03.759Z,518
2019-03-05T06:58:12.930Z,518
2019-03-05T06:59:20.356Z,519
2019-03-05T07:00:27.294Z,519
2019-03-05T07:01:34.534Z,517
2019-03-05T07:02:41.460Z,517
2019-03-05T07:03:48.668Z,516
2019-03-05T07:04:55.891Z,516
2019-03-05T07:06:02.848Z,516
2019-03-05T07:07:10.056Z,516
2019-03-05T07:08:17.000Z,516
2019-03-05T07:09:24.277Z,516
2019-03-05T07:10:31.511Z,516
2019-03-05T07:11:38.740Z,517
2019-03-05T07:12:45.684Z,516
2019-03-05T07:13:52.631Z,515
2019-03-05T07:15:00.144Z,516
2019-03-05T07:16:07.542Z,517
2019-03-05T07:17:14.713Z,517
2019-03-05T07:18:24.633Z,516
2019-03-05T07:19:32.069Z,517
2019-03-05T07:20:39.293Z,517
2019-03-05T07:21:46.536Z,516
2019-03-05T07:22:53.761Z,515
2019-03-05T07:24:00.701Z,515
2019-03-05T07:25:07.904Z,515
2019-03-05T07:26:15.327Z,516
2019-03-05T07:27:21.987Z,516
2019-03-05T07:28:29.430Z,515
2019-03-05T07:29:36.636Z,515
2019-03-05T07:30:44.073Z,514
2019-03-05T07:31:51.289Z,514
2019-03-05T07:32:58.523Z,513
2019-03-05T07:34:05.727Z,513
2019-03-05T07:35:12.669Z,515
2019-03-05T07:36:19.874Z,513
2019-03-05T07:37:26.831Z,513
2019-03-05T07:38:33.772Z,513
2019-03-05T07:39:40.720Z,514
2019-03-05T07:40:47.941Z,513
2019-03-05T07:41:55.157Z,514
2019-03-05T07:43:02.371Z,513
2019-03-05T07:44:09.822Z,512
2019-03-05T07:45:16.774Z,512
2019-03-05T07:46:23.996Z,512
2019-03-05T07:47:30.940Z,512
2019-03-05T07:48:38.217Z,512
2019-03-05T07:49:45.442Z,511
2019-03-05T07:50:52.879Z,512
2019-03-05T07:52:00.093Z,511
2019-03-05T07:53:07.260Z,511
2019-03-05T07:54:14.209Z,511
2019-03-05T07:55:21.424Z,510
2019-03-05T07:56:28.366Z,511
2019-03-05T07:57:35.634Z,512
2019-03-05T07:58:42.847Z,511
2019-03-05T07:59:49.796Z,510
2019-03-05T08:00:57.005Z,511
2019-03-05T08:02:04.254Z,512
2019-03-05T08:03:11.473Z,510
2019-03-05T08:04:18.683Z,510
2019-03-05T08:05:25.628Z,510
2019-03-05T08:06:32.872Z,510
2019-03-05T08:07:40.209Z,511
2019-03-05T08:08:47.417Z,510
2019-03-05T08:09:54.368Z,510
2019-03-05T08:11:01.605Z,510
2019-03-05T08:12:08.839Z,510
2019-03-05T08:13:15.497Z,510
2019-03-05T08:14:22.466Z,508
2019-03-05T08:15:29.897Z,507
2019-03-05T08:16:36.842Z,507
2019-03-05T08:17:46.877Z,507
2019-03-05T08:18:54.042Z,507
2019-03-05T08:20:01.542Z,507
2019-03-05T08:21:08.755Z,507
2019-03-05T08:22:15.982Z,508
2019-03-05T08:23:23.222Z,509
2019-03-05T08:24:30.482Z,508
2019-03-05T08:25:37.692Z,508
2019-03-05T08:26:45.141Z,508
2019-03-05T08:27:52.362Z,506
2019-03-05T08:28:59.568Z,506
2019-03-05T08:30:15.622Z,507
2019-03-05T08:31:22.847Z,507
2019-03-05T08:32:29.786Z,506
2019-03-05T08:33:37.240Z,505
2019-03-05T08:34:44.453Z,503
2019-03-05T08:35:51.939Z,503
2019-03-05T08:36:59.146Z,502
2019-03-05T08:38:06.145Z,504
2019-03-05T08:39:13.374Z,505
2019-03-05T08:40:20.597Z,502
2019-03-05T08:41:27.831Z,502
2019-03-05T08:42:35.042Z,501
2019-03-05T08:43:41.994Z,502
2019-03-05T08:44:51.779Z,501
2019-03-05T08:45:58.991Z,500
2019-03-05T08:47:06.441Z,499
2019-03-05T08:48:13.670Z,497
2019-03-05T08:49:20.962Z,497
2019-03-05T08:50:28.195Z,497
2019-03-05T08:51:35.423Z,497
2019-03-05T08:52:42.375Z,496
2019-03-05T08:53:50.786Z,496
2019-03-05T08:54:58.009Z,495
2019-03-05T08:56:05.229Z,492
2019-03-05T08:57:12.452Z,490
2019-03-05T08:58:19.707Z,492
2019-03-05T08:59:26.927Z,496
2019-03-05T09:00:34.358Z,498
2019-03-05T09:01:41.039Z,499
2019-03-05T09:02:50.058Z,498
2019-03-05T09:03:57.277Z,498
2019-03-05T09:05:04.490Z,497
2019-03-05T09:06:11.453Z,499
2019-03-05T09:07:18.674Z,500
2019-03-05T09:08:25.904Z,500
2019-03-05T09:09:33.127Z,501
2019-03-05T23:00:06.944Z,507
2019-03-05T23:01:14.177Z,503
2019-03-05T23:02:21.396Z,503
2019-03-05T23:03:28.614Z,501
2019-03-05T23:04:35.822Z,502
2019-03-05T23:05:42.812Z,501
2019-03-05T23:06:49.995Z,502
2019-03-05T23:07:56.958Z,502
2019-03-05T23:09:04.161Z,501
2019-03-05T23:10:11.482Z,502
2019-03-05T23:11:18.596Z,502
2019-03-05T23:12:26.144Z,502
2019-03-05T23:13:33.697Z,502
2019-03-05T23:14:41.002Z,501
2019-03-05T23:15:48.393Z,500
2019-03-05T23:16:55.937Z,499
2019-03-05T23:18:03.654Z,500
2019-03-05T23:19:11.236Z,500
2019-03-05T23:20:19.006Z,500
2019-03-05T23:21:26.735Z,500
2019-03-05T23:22:34.126Z,501
2019-03-05T23:23:41.941Z,500
2019-03-05T23:24:49.380Z,500
2019-03-05T23:25:57.342Z,500
2019-03-05T23:27:05.108Z,499
2019-03-05T23:28:13.071Z,498
2019-03-05T23:29:20.699Z,499
2019-03-05T23:30:28.431Z,498
2019-03-05T23:31:36.220Z,498
2019-03-05T23:32:43.546Z,499
2019-03-05T23:33:51.231Z,499
2019-03-05T23:34:58.734Z,499
2019-03-05T23:36:06.378Z,498
2019-03-05T23:37:14.306Z,498
2019-03-05T23:38:22.075Z,498
2019-03-05T23:39:29.833Z,497
2019-03-05T23:40:37.754Z,498
2019-03-05T23:41:45.740Z,498
2019-03-05T23:42:53.488Z,497
2019-03-05T23:44:01.509Z,497
2019-03-05T23:45:09.146Z,497
2019-03-05T23:46:16.538Z,496
2019-03-05T23:47:24.255Z,497
2019-03-05T23:48:32.162Z,496
2019-03-05T23:49:39.976Z,497
2019-03-05T23:50:47.581Z,496
2019-03-05T23:51:55.281Z,497
2019-03-05T23:53:02.921Z,497
2019-03-05T23:54:10.861Z,498
2019-03-05T23:55:18.553Z,499
2019-03-05T23:56:26.259Z,499
2019-03-05T23:57:33.942Z,497
2019-03-05T23:58:41.750Z,497
2019-03-05T23:59:49.475Z,497
